Time;durP1;ratioP1;P1;durP2;ratioP2;P2;SDS_P1;SDS_P2;PMS_P1;PMS_P2;Temp;Humidity;BMP_temperature;BMP_pressure;BME280_temperature;BME280_humidity;BME280_pressure;Samples;Min_cycle;Max_cycle;Signal;HPM_P1;HPM_P2
2021/01/08 00:00:57;;;;;;;16.33;8.77;;;1.90;99.90;;;;;;5073895;28;20212;-51
2021/01/08 00:03:25;;;;;;;10.95;7.85;;;1.90;99.90;;;;;;5073851;28;20168;-47
2021/01/08 00:05:52;;;;;;;12.63;6.90;;;1.90;99.90;;;;;;5074084;28;20218;-52
2021/01/08 00:08:19;;;;;;;9.57;6.60;;;1.80;99.90;;;;;;5073910;28;20200;-50
2021/01/08 00:10:48;;;;;;;8.85;6.97;;;1.90;99.90;;;;;;5073938;28;20261;-51
2021/01/08 00:13:15;;;;;;;10.20;5.60;;;1.90;99.90;;;;;;5055669;28;20270;-54
2021/01/08 00:15:44;;;;;;;14.57;7.68;;;1.90;99.90;;;;;;5073568;28;20173;-48
2021/01/08 00:18:11;;;;;;;6.88;6.10;;;1.80;99.90;;;;;;5073684;28;20180;-52
2021/01/08 00:20:41;;;;;;;10.73;5.43;;;1.80;99.90;;;;;;5073542;28;20302;-52
2021/01/08 00:23:08;;;;;;;13.20;5.05;;;1.80;99.90;;;;;;5073371;28;20184;-49
2021/01/08 00:25:35;;;;;;;13.82;6.72;;;1.80;99.90;;;;;;5073450;28;20240;-47
2021/01/08 00:28:02;;;;;;;10.18;6.50;;;1.80;99.90;;;;;;5073645;28;20230;-51
2021/01/08 00:30:32;;;;;;;12.00;6.70;;;1.80;99.90;;;;;;5073475;28;20207;-50
2021/01/08 00:33:00;;;;;;;12.27;7.78;;;1.80;99.90;;;;;;5073645;28;20180;-50
2021/01/08 00:35:27;;;;;;;11.32;6.43;;;1.80;99.90;;;;;;5073737;28;20585;-49
2021/01/08 00:37:54;;;;;;;10.77;7.55;;;1.80;99.90;;;;;;5073544;28;20687;-52
2021/01/08 00:40:21;;;;;;;15.15;8.07;;;1.80;99.90;;;;;;5073000;28;20216;-51
2021/01/08 00:42:49;;;;;;;18.15;7.22;;;1.80;99.90;;;;;;5073832;28;20190;-48
2021/01/08 00:45:16;;;;;;;18.55;8.75;;;1.80;99.90;;;;;;5073148;28;20196;-47
2021/01/08 00:47:46;;;;;;;16.58;8.10;;;1.80;99.90;;;;;;5073333;28;20655;-50
2021/01/08 00:50:15;;;;;;;15.15;7.38;;;1.80;99.90;;;;;;5054829;28;20218;-52
2021/01/08 00:52:42;;;;;;;13.40;7.82;;;1.80;99.90;;;;;;5072948;28;20172;-52
2021/01/08 00:55:11;;;;;;;12.65;6.78;;;1.80;99.90;;;;;;5054948;28;20589;-48
2021/01/08 00:57:48;;;;;;;13.90;8.52;;;1.90;99.90;;;;;;5054938;28;20524;-50
2021/01/08 01:00:16;;;;;;;11.85;6.95;;;1.90;99.90;;;;;;5072512;28;20212;-53
2021/01/08 01:02:45;;;;;;;6.88;6.18;;;1.90;99.90;;;;;;5072681;28;20183;-53
2021/01/08 01:05:12;;;;;;;15.85;8.02;;;1.90;99.90;;;;;;5072630;28;20204;-48
2021/01/08 01:07:40;;;;;;;11.05;5.90;;;1.90;99.90;;;;;;5072814;28;20557;-51
2021/01/08 01:10:09;;;;;;;7.90;5.97;;;1.90;99.90;;;;;;5072497;28;20214;-49
2021/01/08 01:12:36;;;;;;;15.32;10.70;;;1.90;99.90;;;;;;5072457;28;20184;-49
2021/01/08 01:15:04;;;;;;;14.35;8.07;;;2.00;99.90;;;;;;5072432;28;20171;-52
2021/01/08 01:17:31;;;;;;;14.25;8.02;;;2.00;99.90;;;;;;5054397;28;20290;-51
2021/01/08 01:19:58;;;;;;;8.43;5.85;;;2.00;99.90;;;;;;5072335;28;20207;-46
2021/01/08 01:22:25;;;;;;;11.95;8.35;;;1.90;99.90;;;;;;5070536;28;20246;-48
2021/01/08 01:24:53;;;;;;;12.70;7.68;;;2.00;99.90;;;;;;5072032;28;20208;-50
2021/01/08 01:27:24;;;;;;;15.90;8.35;;;2.00;99.90;;;;;;5072240;28;20176;-48
2021/01/08 01:29:51;;;;;;;11.43;7.93;;;2.00;99.90;;;;;;5071963;28;20257;-50
2021/01/08 01:32:18;;;;;;;22.55;9.50;;;2.00;99.90;;;;;;5072089;28;20259;-50
2021/01/08 01:34:46;;;;;;;13.68;8.88;;;2.00;99.90;;;;;;5072101;28;20606;-49
2021/01/08 01:37:13;;;;;;;14.93;8.88;;;2.00;99.90;;;;;;5072102;28;20176;-50
2021/01/08 01:39:40;;;;;;;12.98;6.78;;;1.90;99.90;;;;;;5071810;28;20716;-49
2021/01/08 01:42:08;;;;;;;13.38;8.77;;;1.90;99.90;;;;;;5071917;28;20173;-46
2021/01/08 01:44:35;;;;;;;19.58;11.27;;;1.90;99.90;;;;;;5071898;28;20227;-52
2021/01/08 01:47:03;;;;;;;10.57;7.00;;;1.90;99.90;;;;;;5071852;28;20177;-47
2021/01/08 01:49:30;;;;;;;11.07;5.68;;;1.90;99.90;;;;;;5053819;28;20337;-49
2021/01/08 01:52:00;;;;;;;12.65;7.70;;;2.00;99.90;;;;;;5071756;28;20249;-52
2021/01/08 01:54:27;;;;;;;12.50;7.55;;;1.90;99.90;;;;;;5071679;28;20473;-52
2021/01/08 01:56:55;;;;;;;12.85;8.02;;;2.00;99.90;;;;;;5071773;28;20181;-50
2021/01/08 01:59:23;;;;;;;10.45;6.82;;;2.00;99.90;;;;;;5071318;28;20611;-50
2021/01/08 02:01:50;;;;;;;12.40;7.97;;;2.00;99.90;;;;;;5071408;28;20199;-50
2021/01/08 02:04:19;;;;;;;14.75;6.70;;;2.00;99.90;;;;;;5071617;28;20245;-51
2021/01/08 02:06:46;;;;;;;18.33;10.25;;;2.10;99.90;;;;;;5071917;28;20208;-49
2021/01/08 02:09:14;;;;;;;16.02;8.68;;;2.10;99.90;;;;;;5071583;28;20172;-48
2021/01/08 02:11:48;;;;;;;14.13;7.57;;;2.10;99.90;;;;;;5071475;28;20177;-51
2021/01/08 02:14:19;;;;;;;11.57;7.85;;;2.10;99.90;;;;;;5071470;28;20176;-55
2021/01/08 02:16:50;;;;;;;17.80;10.95;;;2.20;99.90;;;;;;5070572;28;20184;-48
2021/01/08 02:19:22;;;;;;;17.17;8.63;;;2.20;99.90;;;;;;5071367;28;20580;-51
2021/01/08 02:21:54;;;;;;;11.57;8.57;;;2.20;99.90;;;;;;5071516;28;20180;-53
2021/01/08 02:24:28;;;;;;;11.00;7.65;;;2.10;99.90;;;;;;5071073;28;20192;-55
2021/01/08 02:26:56;;;;;;;12.05;7.07;;;2.00;99.90;;;;;;5071283;28;20281;-51
2021/01/08 02:29:24;;;;;;;13.13;8.38;;;2.00;99.90;;;;;;5071332;28;20285;-54
2021/01/08 02:31:52;;;;;;;12.23;8.48;;;1.90;99.90;;;;;;5072034;28;20173;-52
2021/01/08 02:34:21;;;;;;;11.00;5.53;;;1.80;99.90;;;;;;5072042;28;20190;-47
2021/01/08 02:36:50;;;;;;;13.18;8.27;;;1.80;99.90;;;;;;5071841;28;20542;-48
2021/01/08 02:39:17;;;;;;;10.88;6.50;;;1.90;99.90;;;;;;5053710;28;20299;-53
2021/01/08 02:41:47;;;;;;;7.95;6.60;;;1.80;99.90;;;;;;5071959;28;20176;-48
2021/01/08 02:44:16;;;;;;;12.98;7.38;;;1.80;99.90;;;;;;5071895;28;20177;-50
2021/01/08 02:46:44;;;;;;;12.38;7.78;;;1.70;99.90;;;;;;5071791;28;20210;-47
2021/01/08 02:49:11;;;;;;;5.22;3.58;;;1.70;99.90;;;;;;5072027;28;20208;-50
2021/01/08 02:51:39;;;;;;;14.88;9.98;;;1.70;99.90;;;;;;5071695;28;20207;-46
2021/01/08 02:54:08;;;;;;;9.48;7.03;;;1.70;99.90;;;;;;5071891;28;20172;-47
2021/01/08 02:56:39;;;;;;;8.93;5.72;;;1.60;99.90;;;;;;5071722;28;20707;-47
2021/01/08 02:59:08;;;;;;;11.45;7.35;;;1.60;99.90;;;;;;5071662;28;20179;-46
2021/01/08 03:01:37;;;;;;;12.77;7.55;;;1.70;99.90;;;;;;5071582;28;20212;-45
2021/01/08 03:04:05;;;;;;;8.73;6.70;;;1.70;99.90;;;;;;5072050;28;20638;-48
2021/01/08 03:06:33;;;;;;;13.88;9.65;;;1.70;99.90;;;;;;5053651;28;20688;-44
2021/01/08 03:09:01;;;;;;;11.27;6.20;;;1.60;99.90;;;;;;5071226;28;20633;-50
2021/01/08 03:11:28;;;;;;;14.60;10.05;;;1.70;99.90;;;;;;5071420;28;20208;-48
2021/01/08 03:13:57;;;;;;;19.52;7.82;;;1.60;99.90;;;;;;5071698;28;20176;-47
2021/01/08 03:16:24;;;;;;;10.93;7.25;;;1.60;99.90;;;;;;5071347;28;20177;-46
2021/01/08 03:18:52;;;;;;;15.20;7.43;;;1.70;99.90;;;;;;5071333;28;20196;-53
2021/01/08 03:21:19;;;;;;;10.18;6.00;;;1.70;99.90;;;;;;5071161;28;20212;-55
2021/01/08 03:23:46;;;;;;;9.23;6.53;;;1.70;99.90;;;;;;5071591;28;20229;-49
2021/01/08 03:26:14;;;;;;;17.42;8.02;;;1.70;99.90;;;;;;5071443;28;20684;-54
2021/01/08 03:28:41;;;;;;;16.55;8.18;;;1.70;99.90;;;;;;5073125;28;20255;-46
2021/01/08 03:31:08;;;;;;;16.23;8.45;;;1.70;99.90;;;;;;5075415;28;20235;-48
2021/01/08 03:33:35;;;;;;;11.88;8.38;;;1.70;99.90;;;;;;5075477;28;20190;-47
2021/01/08 03:36:04;;;;;;;18.08;10.48;;;1.70;99.90;;;;;;5075437;28;20177;-47
2021/01/08 03:38:31;;;;;;;16.70;9.20;;;1.70;99.90;;;;;;5075052;28;20196;-48
2021/01/08 03:41:00;;;;;;;17.02;9.25;;;1.70;99.90;;;;;;5074921;28;20220;-50
2021/01/08 03:43:27;;;;;;;17.38;12.48;;;1.80;99.90;;;;;;5074558;28;20281;-51
2021/01/08 03:45:54;;;;;;;15.80;9.50;;;1.80;99.90;;;;;;5074571;28;20734;-49
2021/01/08 03:48:22;;;;;;;13.52;8.07;;;1.80;99.90;;;;;;5074710;28;20648;-47
2021/01/08 03:50:49;;;;;;;11.30;6.35;;;1.80;99.90;;;;;;5074889;28;20208;-48
2021/01/08 03:53:17;;;;;;;9.75;7.43;;;1.80;99.90;;;;;;5075040;28;20221;-55
2021/01/08 03:55:44;;;;;;;16.00;8.70;;;1.90;99.90;;;;;;5074587;28;20500;-47
2021/01/08 03:58:11;;;;;;;9.77;7.20;;;1.90;99.90;;;;;;5074490;28;20200;-49
2021/01/08 04:00:38;;;;;;;14.38;10.88;;;1.90;99.90;;;;;;5074322;28;20212;-49
2021/01/08 04:03:06;;;;;;;10.45;8.75;;;1.90;99.90;;;;;;5074476;28;20168;-55
2021/01/08 04:05:33;;;;;;;15.13;9.38;;;1.90;99.90;;;;;;5074526;28;20238;-55
2021/01/08 04:08:00;;;;;;;14.88;10.13;;;2.00;99.90;;;;;;5075031;28;20204;-55
2021/01/08 04:10:28;;;;;;;15.45;9.70;;;2.00;99.90;;;;;;5075012;28;20696;-53
2021/01/08 04:12:55;;;;;;;15.57;9.38;;;2.00;99.90;;;;;;5074425;28;20184;-53
2021/01/08 04:15:22;;;;;;;20.65;12.48;;;2.10;99.90;;;;;;5074545;28;20168;-54
2021/01/08 04:17:49;;;;;;;14.48;9.93;;;2.00;99.90;;;;;;5074552;28;20183;-53
2021/01/08 04:20:16;;;;;;;18.58;9.93;;;2.00;99.90;;;;;;5074440;28;20257;-56
2021/01/08 04:22:43;;;;;;;15.57;10.25;;;2.00;99.90;;;;;;5074839;28;20181;-52
2021/01/08 04:25:11;;;;;;;15.77;12.48;;;2.00;99.90;;;;;;5074579;28;20279;-54
2021/01/08 04:27:39;;;;;;;11.70;7.65;;;1.90;99.90;;;;;;5074721;28;20585;-53
2021/01/08 04:30:07;;;;;;;17.13;12.13;;;1.90;99.90;;;;;;5074537;28;20208;-54
2021/01/08 04:32:34;;;;;;;18.63;11.48;;;1.90;99.90;;;;;;5074569;28;20188;-56
2021/01/08 04:35:02;;;;;;;13.65;9.50;;;1.90;99.90;;;;;;5074747;28;20536;-53
2021/01/08 04:37:29;;;;;;;11.43;10.02;;;1.90;99.90;;;;;;5075159;28;20546;-54
2021/01/08 04:39:56;;;;;;;17.40;9.77;;;1.80;99.90;;;;;;5073268;28;20212;-54
2021/01/08 04:42:23;;;;;;;12.90;8.25;;;1.80;99.90;;;;;;5073662;28;20168;-54
2021/01/08 04:44:51;;;;;;;14.05;8.90;;;1.80;99.90;;;;;;5073573;28;20207;-50
2021/01/08 04:47:20;;;;;;;13.68;9.48;;;1.70;99.90;;;;;;5073667;28;20168;-54
2021/01/08 04:49:47;;;;;;;20.13;9.52;;;1.70;99.90;;;;;;5073530;28;20204;-55
2021/01/08 04:52:14;;;;;;;12.60;7.47;;;1.70;99.90;;;;;;5073548;28;20181;-57
2021/01/08 04:54:42;;;;;;;12.63;9.10;;;1.80;99.90;;;;;;5073382;28;20180;-53
2021/01/08 04:57:11;;;;;;;9.95;6.47;;;1.70;99.90;;;;;;5073462;28;20187;-52
2021/01/08 04:59:39;;;;;;;13.60;5.85;;;1.80;99.90;;;;;;5073217;28;20692;-56
2021/01/08 05:02:07;;;;;;;11.77;6.72;;;1.70;99.90;;;;;;5073490;28;20207;-54
2021/01/08 05:04:35;;;;;;;10.85;7.60;;;1.80;99.90;;;;;;5073074;28;20173;-57
2021/01/08 05:07:02;;;;;;;10.52;6.32;;;1.80;99.90;;;;;;5073934;28;20545;-55
2021/01/08 05:09:29;;;;;;;6.72;5.63;;;1.90;99.90;;;;;;5073636;28;20180;-56
2021/01/08 05:11:57;;;;;;;12.82;9.05;;;2.00;99.90;;;;;;5073290;28;20176;-56
2021/01/08 05:14:26;;;;;;;14.50;8.85;;;1.90;99.90;;;;;;5073347;28;20176;-56
2021/01/08 05:16:56;;;;;;;11.93;6.82;;;1.80;99.90;;;;;;5073342;28;20541;-57
2021/01/08 05:19:25;;;;;;;8.18;5.82;;;1.80;99.90;;;;;;5072950;28;20608;-54
2021/01/08 05:21:52;;;;;;;10.55;7.25;;;1.80;99.90;;;;;;5072859;28;20177;-52
2021/01/08 05:24:22;;;;;;;18.85;11.07;;;1.80;99.90;;;;;;5073015;28;20183;-54
2021/01/08 05:26:49;;;;;;;10.57;7.45;;;1.80;99.90;;;;;;5072899;28;20238;-57
2021/01/08 05:29:17;;;;;;;12.75;7.78;;;1.80;99.90;;;;;;5073528;28;20249;-55
2021/01/08 05:31:46;;;;;;;18.30;9.80;;;1.80;99.90;;;;;;5074288;28;20195;-56
2021/01/08 05:34:22;;;;;;;17.55;9.70;;;1.80;99.90;;;;;;5073518;28;20267;-56
2021/01/08 05:36:50;;;;;;;13.00;9.18;;;1.80;99.90;;;;;;5073104;28;20172;-49
2021/01/08 05:39:20;;;;;;;11.80;7.85;;;1.90;99.90;;;;;;5072954;28;20561;-51
2021/01/08 05:41:47;;;;;;;17.17;9.18;;;1.90;99.90;;;;;;5072729;28;20183;-54
2021/01/08 05:44:16;;;;;;;12.23;7.72;;;2.00;99.90;;;;;;5072430;28;20176;-54
2021/01/08 05:46:48;;;;;;;15.50;10.07;;;2.00;99.90;;;;;;5071094;28;20222;-57
2021/01/08 05:49:17;;;;;;;14.25;7.85;;;2.00;99.90;;;;;;5072749;28;20183;-51
2021/01/08 05:51:45;;;;;;;12.50;7.50;;;2.10;99.90;;;;;;5072404;28;20541;-54
2021/01/08 05:54:15;;;;;;;11.65;8.13;;;2.20;99.90;;;;;;5072394;28;20259;-50
2021/01/08 05:56:42;;;;;;;12.20;9.82;;;2.10;99.90;;;;;;5072419;28;20180;-54
2021/01/08 05:59:09;;;;;;;15.98;10.40;;;2.10;99.90;;;;;;5072286;28;20199;-50
2021/01/08 06:01:38;;;;;;;11.82;7.65;;;2.10;99.90;;;;;;5072359;28;20204;-48
2021/01/08 06:04:07;;;;;;;8.40;6.13;;;2.10;99.90;;;;;;5072430;28;20181;-52
2021/01/08 06:06:41;;;;;;;11.73;8.57;;;2.00;99.90;;;;;;5072221;28;20196;-53
2021/01/08 06:09:12;;;;;;;15.40;7.82;;;1.90;99.90;;;;;;5072193;28;20172;-53
2021/01/08 06:11:43;;;;;;;12.50;6.55;;;1.90;99.90;;;;;;5072083;28;20562;-55
2021/01/08 06:14:12;;;;;;;9.80;7.25;;;1.90;99.90;;;;;;5072275;28;20186;-50
2021/01/08 06:16:42;;;;;;;12.23;8.32;;;1.90;99.90;;;;;;5072225;28;20188;-52
2021/01/08 06:19:10;;;;;;;12.02;7.95;;;1.90;99.90;;;;;;5071995;28;20226;-57
2021/01/08 06:21:39;;;;;;;13.00;7.00;;;1.90;99.90;;;;;;5074661;28;20261;-57
2021/01/08 06:24:11;;;;;;;16.45;6.65;;;1.80;99.90;;;;;;5072833;28;20237;-56
2021/01/08 06:26:41;;;;;;;13.82;8.95;;;1.90;99.90;;;;;;5072390;28;20231;-56
2021/01/08 06:29:17;;;;;;;17.65;9.93;;;1.80;99.90;;;;;;5072300;28;20172;-55
2021/01/08 06:31:49;;;;;;;18.05;9.30;;;1.80;99.90;;;;;;5072066;28;20180;-55
2021/01/08 06:34:23;;;;;;;13.35;8.15;;;1.80;99.90;;;;;;5072089;28;20626;-52
2021/01/08 06:37:04;;;;;;;15.77;10.27;;;1.80;99.90;;;;;;5072674;28;20645;-57
2021/01/08 06:39:35;;;;;;;18.52;10.52;;;1.90;99.90;;;;;;5072300;28;20679;-53
2021/01/08 06:42:03;;;;;;;11.95;10.75;;;1.80;99.90;;;;;;5072898;28;20168;-52
2021/01/08 06:44:32;;;;;;;14.00;7.88;;;1.90;99.90;;;;;;5073227;28;20191;-50
2021/01/08 06:47:01;;;;;;;9.05;7.68;;;1.90;99.90;;;;;;5071779;28;20208;-54
2021/01/08 06:49:30;;;;;;;12.23;8.45;;;1.80;99.90;;;;;;5070707;28;20630;-54
2021/01/08 06:51:59;;;;;;;16.90;8.25;;;1.90;99.90;;;;;;5071820;28;20176;-54
2021/01/08 06:54:28;;;;;;;19.25;12.48;;;1.80;99.90;;;;;;5072145;28;20525;-55
2021/01/08 06:56:59;;;;;;;16.13;8.20;;;1.70;99.90;;;;;;5071827;28;20177;-54
2021/01/08 06:59:31;;;;;;;21.40;8.38;;;1.80;99.90;;;;;;5071641;28;20176;-52
2021/01/08 07:02:03;;;;;;;12.25;6.85;;;1.80;99.90;;;;;;5071933;28;20172;-56
2021/01/08 07:04:33;;;;;;;20.52;11.27;;;1.80;99.90;;;;;;5076284;28;20168;-54
2021/01/08 07:07:02;;;;;;;11.80;8.68;;;1.80;99.90;;;;;;5076312;28;20239;-55
2021/01/08 07:09:32;;;;;;;12.15;7.55;;;1.80;99.90;;;;;;5076318;28;20626;-55
2021/01/08 07:12:01;;;;;;;14.23;10.32;;;1.90;99.90;;;;;;5076168;28;20177;-50
2021/01/08 07:14:29;;;;;;;16.55;10.70;;;1.80;99.90;;;;;;5075821;28;20172;-54
2021/01/08 07:16:57;;;;;;;14.07;7.68;;;1.80;99.90;;;;;;5076336;28;20198;-56
2021/01/08 07:19:28;;;;;;;11.57;5.95;;;1.80;99.90;;;;;;5075471;28;20222;-53
2021/01/08 07:21:59;;;;;;;21.20;10.25;;;1.80;99.90;;;;;;5075395;28;20187;-54
2021/01/08 07:24:30;;;;;;;14.57;7.72;;;1.80;99.90;;;;;;5075793;28;20176;-52
2021/01/08 07:27:17;;;;;;;11.45;6.07;;;1.80;99.90;;;;;;5075661;28;20196;-53
2021/01/08 07:29:55;;;;;;;16.27;10.32;;;1.80;99.90;;;;;;5077134;28;20548;-56
2021/01/08 07:32:35;;;;;;;14.90;8.85;;;1.80;99.90;;;;;;5076334;28;20176;-53
2021/01/08 07:35:21;;;;;;;9.63;6.10;;;1.80;99.90;;;;;;5075611;28;20592;-52
2021/01/08 07:38:00;;;;;;;15.82;8.25;;;1.90;99.90;;;;;;5057518;28;20271;-53
2021/01/08 07:40:28;;;;;;;15.30;9.95;;;2.00;99.90;;;;;;5075603;28;20235;-52
2021/01/08 07:42:57;;;;;;;15.65;9.27;;;2.10;99.90;;;;;;5075913;28;20195;-53
2021/01/08 07:45:44;;;;;;;13.77;9.32;;;2.00;99.90;;;;;;5075313;28;20202;-51
2021/01/08 07:48:22;;;;;;;20.80;8.13;;;2.00;99.90;;;;;;5075375;28;20574;-51
2021/01/08 07:50:59;;;;;;;12.80;7.57;;;2.10;99.90;;;;;;5075322;28;20208;-56
2021/01/08 07:53:49;;;;;;;12.70;7.45;;;2.00;99.90;;;;;;5076406;28;20202;-55
2021/01/08 07:56:19;;;;;;;14.82;7.70;;;2.00;99.90;;;;;;5070564;28;20260;-56
2021/01/08 07:58:47;;;;;;;16.38;7.80;;;2.10;99.90;;;;;;5075208;28;20175;-57
2021/01/08 08:01:17;;;;;;;17.55;10.77;;;2.10;99.90;;;;;;5075120;28;20208;-57
2021/01/08 08:03:45;;;;;;;15.68;9.13;;;2.00;99.90;;;;;;5075710;28;20185;-54
2021/01/08 08:06:12;;;;;;;14.50;11.63;;;2.00;99.90;;;;;;5074968;28;20215;-57
2021/01/08 08:08:41;;;;;;;17.40;9.45;;;2.00;99.90;;;;;;5075092;28;20555;-57
2021/01/08 08:11:13;;;;;;;12.63;7.70;;;2.00;99.90;;;;;;5074640;28;20208;-54
2021/01/08 08:13:40;;;;;;;11.23;9.27;;;2.00;99.90;;;;;;5074641;28;20267;-54
2021/01/08 08:16:08;;;;;;;15.50;8.52;;;2.00;99.90;;;;;;5072572;28;20610;-56
2021/01/08 08:18:49;;;;;;;15.25;9.77;;;1.90;99.90;;;;;;5073814;28;20188;-49
2021/01/08 08:21:21;;;;;;;13.73;8.63;;;2.00;99.90;;;;;;5073650;28;20204;-47
2021/01/08 08:23:53;;;;;;;14.82;9.10;;;2.00;99.90;;;;;;5074417;28;20180;-48
2021/01/08 08:26:20;;;;;;;15.35;8.50;;;2.00;99.90;;;;;;5074033;28;20579;-49
2021/01/08 08:29:02;;;;;;;16.65;9.80;;;2.00;99.90;;;;;;5073772;28;20183;-53
2021/01/08 08:31:30;;;;;;;10.88;6.85;;;2.00;99.90;;;;;;5073722;28;20215;-48
2021/01/08 08:33:59;;;;;;;10.18;6.05;;;2.10;99.90;;;;;;5073834;28;20210;-47
2021/01/08 08:36:28;;;;;;;12.07;7.75;;;2.10;99.90;;;;;;5073704;28;20519;-50
2021/01/08 08:39:01;;;;;;;12.10;8.52;;;2.10;99.90;;;;;;5073345;28;20214;-50
2021/01/08 08:41:29;;;;;;;12.95;8.77;;;2.10;99.90;;;;;;5073201;28;20204;-56
2021/01/08 08:44:08;;;;;;;13.75;7.05;;;2.10;99.90;;;;;;5073110;28;20180;-50
2021/01/08 08:46:43;;;;;;;14.80;8.77;;;2.10;99.90;;;;;;5073372;28;20364;-51
2021/01/08 08:49:12;;;;;;;15.40;10.70;;;2.10;99.90;;;;;;5073126;28;20210;-53
2021/01/08 08:51:44;;;;;;;9.20;8.10;;;2.10;99.90;;;;;;5073030;28;20257;-54
2021/01/08 08:54:11;;;;;;;18.70;9.57;;;2.10;99.90;;;;;;5072740;28;20184;-49
2021/01/08 08:56:40;;;;;;;13.65;9.88;;;2.20;99.90;;;;;;5072221;28;20175;-50
2021/01/08 08:59:08;;;;;;;16.20;8.18;;;2.30;99.90;;;;;;5053141;28;20189;-51
2021/01/08 09:01:39;;;;;;;19.30;10.73;;;2.30;99.90;;;;;;5052801;28;20208;-52
2021/01/08 09:04:08;;;;;;;11.50;8.05;;;2.40;99.90;;;;;;5053044;28;20631;-47
2021/01/08 09:06:44;;;;;;;15.85;7.55;;;2.40;99.90;;;;;;5052939;28;20202;-50
2021/01/08 09:09:23;;;;;;;12.85;8.25;;;2.50;99.90;;;;;;5053250;28;20266;-57
2021/01/08 09:12:05;;;;;;;11.25;9.63;;;2.50;99.90;;;;;;5053110;28;20276;-46
2021/01/08 09:14:35;;;;;;;11.95;8.57;;;2.40;99.90;;;;;;5053658;28;20702;-51
2021/01/08 09:17:09;;;;;;;21.38;10.05;;;2.40;99.90;;;;;;5053121;28;20184;-48
2021/01/08 09:19:46;;;;;;;14.43;8.32;;;2.40;99.90;;;;;;5053122;28;20203;-48
2021/01/08 09:22:15;;;;;;;16.05;10.20;;;2.40;99.90;;;;;;5052821;28;20173;-55
2021/01/08 09:24:46;;;;;;;12.52;9.10;;;2.40;99.90;;;;;;5052706;28;20180;-51
2021/01/08 09:27:13;;;;;;;19.83;11.50;;;2.50;99.90;;;;;;5052566;28;20421;-47
2021/01/08 09:29:41;;;;;;;21.80;9.15;;;2.50;99.90;;;;;;5052576;28;20205;-50
2021/01/08 09:32:10;;;;;;;15.25;9.20;;;2.60;99.90;;;;;;5052543;28;20283;-49
2021/01/08 09:34:38;;;;;;;16.58;11.93;;;2.60;99.90;;;;;;5052680;28;20522;-48
2021/01/08 09:37:15;;;;;;;14.65;10.15;;;2.60;99.90;;;;;;5052286;28;20264;-53
2021/01/08 09:39:43;;;;;;;11.63;8.38;;;2.60;99.90;;;;;;5052650;28;20223;-51
2021/01/08 09:42:12;;;;;;;12.88;7.60;;;2.60;99.90;;;;;;5052442;28;20224;-50
2021/01/08 09:44:41;;;;;;;17.77;10.07;;;2.60;99.90;;;;;;5052643;28;20219;-50
2021/01/08 09:47:10;;;;;;;13.38;7.93;;;2.60;99.90;;;;;;5052247;28;20216;-50
2021/01/08 09:49:39;;;;;;;19.02;10.88;;;2.60;99.90;;;;;;5051930;28;20266;-52
2021/01/08 09:52:07;;;;;;;17.75;10.43;;;2.60;99.90;;;;;;5051969;28;20176;-56
2021/01/08 09:54:44;;;;;;;22.25;10.70;;;2.60;99.90;;;;;;5052400;28;20169;-46
2021/01/08 09:57:23;;;;;;;16.10;10.30;;;2.50;99.90;;;;;;5051817;28;20649;-50
2021/01/08 09:59:54;;;;;;;16.63;7.78;;;2.40;99.90;;;;;;5051990;28;20303;-54
2021/01/08 10:02:38;;;;;;;15.90;9.38;;;2.50;99.90;;;;;;5052103;28;20173;-47
2021/01/08 10:05:07;;;;;;;11.20;8.45;;;2.50;99.90;;;;;;5052247;28;20268;-49
2021/01/08 10:07:42;;;;;;;15.88;10.38;;;2.50;99.90;;;;;;5051461;28;20197;-47
2021/01/08 10:10:12;;;;;;;16.70;9.40;;;2.50;99.90;;;;;;5051661;28;20573;-49
2021/01/08 10:12:47;;;;;;;22.48;8.95;;;2.50;99.90;;;;;;5051891;28;20184;-47
2021/01/08 10:15:18;;;;;;;12.50;8.05;;;2.60;99.90;;;;;;5053875;28;20204;-51
2021/01/08 10:17:49;;;;;;;21.20;9.57;;;2.60;99.90;;;;;;5052922;28;20263;-49
2021/01/08 10:20:18;;;;;;;22.23;12.10;;;2.60;99.90;;;;;;5052986;28;20266;-53
2021/01/08 10:22:46;;;;;;;18.52;9.07;;;2.60;99.90;;;;;;5053312;28;20181;-52
2021/01/08 10:25:26;;;;;;;12.25;7.32;;;2.70;99.90;;;;;;5053236;28;20560;-51
2021/01/08 10:28:19;;;;;;;16.33;9.27;;;2.70;99.90;;;;;;5053405;28;20181;-50
2021/01/08 10:30:47;;;;;;;19.00;9.32;;;2.70;99.90;;;;;;5053410;28;20680;-54
2021/01/08 10:33:21;;;;;;;12.13;7.25;;;2.70;99.90;;;;;;5053123;28;20173;-52
2021/01/08 10:35:49;;;;;;;15.60;9.15;;;2.70;99.90;;;;;;5053085;28;20227;-50
2021/01/08 10:38:17;;;;;;;14.25;8.65;;;2.80;99.90;;;;;;5053832;28;20204;-55
2021/01/08 10:40:45;;;;;;;16.77;10.70;;;2.80;99.90;;;;;;5057130;28;20212;-54
2021/01/08 10:43:13;;;;;;;13.73;10.07;;;2.90;99.90;;;;;;5057055;28;20197;-51
2021/01/08 10:45:43;;;;;;;12.60;7.03;;;2.90;99.90;;;;;;5056558;28;20188;-52
2021/01/08 10:48:11;;;;;;;10.70;7.93;;;2.90;99.90;;;;;;5056492;28;20181;-49
2021/01/08 10:50:39;;;;;;;15.35;8.98;;;2.80;99.90;;;;;;5056937;28;20697;-48
2021/01/08 10:53:06;;;;;;;15.05;7.88;;;2.70;99.90;;;;;;5056897;28;20177;-51
2021/01/08 10:55:33;;;;;;;12.13;8.07;;;2.80;99.90;;;;;;5056648;28;20180;-51
2021/01/08 10:58:01;;;;;;;10.77;7.88;;;2.80;99.90;;;;;;5056562;28;20567;-52
2021/01/08 11:00:28;;;;;;;17.20;9.50;;;2.70;99.90;;;;;;5056211;28;20200;-51
2021/01/08 11:02:55;;;;;;;19.42;10.60;;;2.70;99.90;;;;;;5055969;28;20188;-51
2021/01/08 11:05:23;;;;;;;18.75;10.07;;;2.80;99.90;;;;;;5057233;28;20176;-48
2021/01/08 11:07:50;;;;;;;17.67;9.00;;;2.90;99.90;;;;;;5056513;28;20570;-52
2021/01/08 11:10:18;;;;;;;14.10;9.07;;;2.90;99.90;;;;;;5059686;28;20204;-48
2021/01/08 11:12:45;;;;;;;19.90;9.18;;;2.80;99.90;;;;;;5075470;28;20172;-46
2021/01/08 11:15:15;;;;;;;7.57;5.68;;;2.80;99.90;;;;;;5075334;28;20172;-48
2021/01/08 11:17:42;;;;;;;13.68;7.43;;;2.70;99.90;;;;;;5074256;28;20180;-53
2021/01/08 11:20:12;;;;;;;9.88;8.48;;;2.80;99.90;;;;;;5075326;28;20208;-51
2021/01/08 11:22:39;;;;;;;17.58;7.53;;;2.70;99.90;;;;;;5075017;28;20184;-47
2021/01/08 11:25:08;;;;;;;14.95;9.43;;;2.70;99.90;;;;;;5075370;28;20188;-50
2021/01/08 11:27:36;;;;;;;17.63;9.70;;;2.70;99.90;;;;;;5056319;28;20231;-50
2021/01/08 11:30:05;;;;;;;17.13;9.95;;;2.80;99.90;;;;;;5074911;28;20688;-47
2021/01/08 11:32:34;;;;;;;15.80;8.90;;;2.90;99.90;;;;;;5074721;28;20180;-48
2021/01/08 11:35:02;;;;;;;13.73;8.77;;;2.80;99.90;;;;;;5074990;28;20184;-46
2021/01/08 11:37:31;;;;;;;23.17;10.07;;;2.80;99.90;;;;;;5070178;28;20183;-50
2021/01/08 11:39:58;;;;;;;14.95;8.98;;;2.80;99.90;;;;;;5055392;28;20216;-53
2021/01/08 11:42:26;;;;;;;8.25;6.85;;;2.80;99.90;;;;;;5054220;28;20208;-49
2021/01/08 11:44:55;;;;;;;20.13;9.90;;;3.00;99.90;;;;;;5054876;28;20181;-50
2021/01/08 11:47:25;;;;;;;9.60;7.28;;;3.10;99.90;;;;;;5054034;28;20213;-51
2021/01/08 11:49:53;;;;;;;15.35;9.27;;;3.10;99.90;;;;;;5054180;28;20232;-55
2021/01/08 11:52:20;;;;;;;13.02;8.25;;;3.10;99.90;;;;;;5054177;28;20177;-54
2021/01/08 11:54:47;;;;;;;19.10;9.15;;;3.10;99.90;;;;;;5054504;28;20216;-49
2021/01/08 11:57:15;;;;;;;10.07;6.03;;;3.00;99.90;;;;;;5054348;28;20173;-52
2021/01/08 11:59:42;;;;;;;13.02;7.35;;;3.00;99.90;;;;;;5053825;28;20562;-48
2021/01/08 12:02:09;;;;;;;11.25;8.13;;;2.90;99.90;;;;;;5053846;28;20195;-51
2021/01/08 12:04:36;;;;;;;11.85;8.15;;;2.90;99.90;;;;;;5054265;28;20176;-50
2021/01/08 12:07:04;;;;;;;11.38;7.30;;;2.90;99.90;;;;;;5053886;28;20197;-56
2021/01/08 12:09:33;;;;;;;17.75;9.38;;;2.90;99.90;;;;;;5053615;28;20243;-51
2021/01/08 12:12:02;;;;;;;11.82;6.68;;;3.00;99.90;;;;;;5053541;28;20562;-48
2021/01/08 12:14:30;;;;;;;14.68;7.50;;;2.90;99.90;;;;;;5036195;28;20196;-54
2021/01/08 12:17:03;;;;;;;11.18;7.28;;;2.90;99.90;;;;;;5053793;28;20223;-48
2021/01/08 12:19:30;;;;;;;11.98;7.35;;;3.00;99.90;;;;;;5053509;28;20193;-47
2021/01/08 12:21:58;;;;;;;12.25;6.15;;;3.00;99.90;;;;;;5053697;28;20580;-48
2021/01/08 12:24:27;;;;;;;13.40;7.18;;;3.00;99.90;;;;;;5054514;28;20177;-50
2021/01/08 12:26:55;;;;;;;8.68;6.70;;;3.00;99.90;;;;;;5036078;28;20266;-50
2021/01/08 12:29:23;;;;;;;14.48;8.18;;;3.10;99.90;;;;;;5054301;28;20173;-51
2021/01/08 12:31:50;;;;;;;9.88;7.20;;;3.10;99.90;;;;;;5054153;28;20601;-50
2021/01/08 12:34:18;;;;;;;11.20;6.70;;;3.10;99.90;;;;;;5053355;28;20177;-52
2021/01/08 12:36:45;;;;;;;8.68;5.82;;;2.90;99.90;;;;;;5053312;28;20188;-46
2021/01/08 12:39:13;;;;;;;9.07;6.05;;;2.80;99.90;;;;;;5053144;28;20203;-47
2021/01/08 12:41:41;;;;;;;8.70;5.20;;;2.70;99.90;;;;;;5053305;28;20204;-52
2021/01/08 12:44:08;;;;;;;11.30;8.10;;;2.70;99.90;;;;;;5053082;28;20260;-53
2021/01/08 12:46:36;;;;;;;12.48;7.32;;;2.60;99.90;;;;;;5053177;28;20205;-52
2021/01/08 12:49:05;;;;;;;8.35;4.80;;;2.60;99.90;;;;;;5053250;28;20238;-52
2021/01/08 12:51:33;;;;;;;16.77;7.38;;;2.60;99.90;;;;;;5052872;28;20234;-48
2021/01/08 12:54:00;;;;;;;6.28;4.90;;;2.60;99.90;;;;;;5052951;28;20181;-53
2021/01/08 12:56:28;;;;;;;11.05;8.32;;;2.50;99.90;;;;;;5053133;28;20561;-56